Gem No.5 — 3EQK2 — position and weather

sailwx.info

Track history (hours):
 
Tides and Currents Weather Stations Pressure Air Temp Water Temp Dewpoint Dewpoint Depression Visibility Wind Speed Wind Dir Waves Ship Positions

Gem No.5

Last reported at 2018-Jan-08 06:13 UTC. Time now 2018-Jan-22 06:35 UTC.
Position N 01°17' E 104°01'.
Warning: this ship's position is 14 days out of date.

Length 330 m; draft 21.3 m.

Type: Tanker. MMSI: 351551000.

Date/timePositionNaut miles runAvg speedWind from/ knotsBaromVisibWave heightAir tempDewpointWater temp
2018-Jan-08 06:13N 01°17' E 104°01'0 0.0
2018-Jan-07 20:22N 01°17' E 104°01'0 0.0
2018-Jan-07 16:07N 01°17' E 104°01'0 0.5
2018-Jan-07 15:52N 01°17' E 104°01'0 0.0
2018-Jan-07 10:49N 01°17' E 104°01'0 0.1
2018-Jan-07 09:31N 01°17' E 104°01'0 0.2
2018-Jan-07 09:22N 01°17' E 104°01'0 0.1
2018-Jan-07 05:31N 01°17' E 104°01'0 0.0
2018-Jan-07 05:28N 01°17' E 104°01'0 0.0
2018-Jan-06 23:19N 01°17' E 104°01'0 0.1
2018-Jan-06 22:52N 01°17' E 104°01'0 0.1
2018-Jan-06 22:11N 01°17' E 104°01'0 0.3
2018-Jan-06 21:57N 01°17' E 104°01'0 0.2
2018-Jan-06 21:28N 01°17' E 104°01'0 0.1
2018-Jan-06 20:55N 01°17' E 104°01'1 1.5
2018-Jan-06 20:29N 01°17' E 104°00'2 3.5
2018-Jan-06 19:59N 01°16' E 103°59'2 4.0
2018-Jan-06 19:30N 01°15' E 103°57'2 3.7
2018-Jan-06 18:59N 01°14' E 103°56'3 6.3
2018-Jan-06 18:31N 01°12' E 103°53'3 6.0
2018-Jan-06 17:59N 01°11' E 103°50'3 5.7
2018-Jan-06 17:30N 01°10' E 103°48'3 5.5
2018-Jan-06 16:59N 01°08' E 103°45'3 5.9
2018-Jan-06 16:31N 01°06' E 103°44'2 4.2
2018-Jan-06 16:00N 01°05' E 103°42'3 6.5
2018-Jan-06 15:31N 01°03' E 103°39'4 7.4
2018-Jan-06 14:59N 01°05' E 103°36'4 8.2
2018-Jan-06 14:31N 01°07' E 103°32'4 8.2
2018-Jan-06 14:00N 01°09' E 103°28'4 8.1
2018-Jan-06 13:31N 01°11' E 103°25'4 8.0
2018-Jan-06 12:59N 01°13' E 103°21'4 8.0
2018-Jan-06 12:30N 01°16' E 103°18'  
Track history (hours):
 
Tides and Currents Weather Stations Pressure Air Temp Water Temp Dewpoint Dewpoint Depression Visibility Wind Speed Wind Dir Waves Ship Positions

Gem No.5

Last reported at 2018-Jan-08 06:13 UTC. Time now 2018-Jan-22 06:35 UTC.
Position N 01°17' E 104°01'.
Warning: this ship's position is 14 days out of date.

Length 330 m; draft 21.3 m.

Type: Tanker. MMSI: 351551000.

Date/timePositionNaut miles runAvg speedWind from/ knotsBaromVisibWave heightAir tempDewpointWater temp
2018-Jan-08 06:13N 01°17' E 104°01'0 0.0
2018-Jan-07 20:22N 01°17' E 104°01'0 0.0
2018-Jan-07 16:07N 01°17' E 104°01'0 0.5
2018-Jan-07 15:52N 01°17' E 104°01'0 0.0
2018-Jan-07 10:49N 01°17' E 104°01'0 0.1
2018-Jan-07 09:31N 01°17' E 104°01'0 0.2
2018-Jan-07 09:22N 01°17' E 104°01'0 0.1
2018-Jan-07 05:31N 01°17' E 104°01'0 0.0
2018-Jan-07 05:28N 01°17' E 104°01'0 0.0
2018-Jan-06 23:19N 01°17' E 104°01'0 0.1
2018-Jan-06 22:52N 01°17' E 104°01'0 0.1
2018-Jan-06 22:11N 01°17' E 104°01'0 0.3
2018-Jan-06 21:57N 01°17' E 104°01'0 0.2
2018-Jan-06 21:28N 01°17' E 104°01'0 0.1
2018-Jan-06 20:55N 01°17' E 104°01'1 1.5
2018-Jan-06 20:29N 01°17' E 104°00'2 3.5
2018-Jan-06 19:59N 01°16' E 103°59'2 4.0
2018-Jan-06 19:30N 01°15' E 103°57'2 3.7
2018-Jan-06 18:59N 01°14' E 103°56'3 6.3
2018-Jan-06 18:31N 01°12' E 103°53'3 6.0
2018-Jan-06 17:59N 01°11' E 103°50'3 5.7
2018-Jan-06 17:30N 01°10' E 103°48'3 5.5
2018-Jan-06 16:59N 01°08' E 103°45'3 5.9
2018-Jan-06 16:31N 01°06' E 103°44'2 4.2
2018-Jan-06 16:00N 01°05' E 103°42'3 6.5
2018-Jan-06 15:31N 01°03' E 103°39'4 7.4
2018-Jan-06 14:59N 01°05' E 103°36'4 8.2
2018-Jan-06 14:31N 01°07' E 103°32'4 8.2
2018-Jan-06 14:00N 01°09' E 103°28'4 8.1
2018-Jan-06 13:31N 01°11' E 103°25'4 8.0
2018-Jan-06 12:59N 01°13' E 103°21'4 8.0
2018-Jan-06 12:30N 01°16' E 103°18'  

Dump ship's entire track history